sensor_id;sensor_type;location;lat;lon;timestamp;P1;durP1;ratioP1;P2;durP2;ratioP2
9188;SDS011;34313;50.780;6.084;2024-01-15T00:01:37;34.43;;;14.90;;
9188;SDS011;34313;50.780;6.084;2024-01-15T00:04:02;33.70;;;14.50;;
9188;SDS011;34313;50.780;6.084;2024-01-15T00:06:27;33.93;;;13.70;;
9188;SDS011;34313;50.780;6.084;2024-01-15T00:08:53;39.93;;;14.20;;
9188;SDS011;34313;50.780;6.084;2024-01-15T00:11:18;36.90;;;14.83;;
9188;SDS011;34313;50.780;6.084;2024-01-15T00:13:44;36.27;;;14.53;;
9188;SDS011;34313;50.780;6.084;2024-01-15T00:16:09;37.30;;;15.30;;
9188;SDS011;34313;50.780;6.084;2024-01-15T00:18:35;31.73;;;14.10;;
9188;SDS011;34313;50.780;6.084;2024-01-15T00:21:00;36.97;;;15.10;;
9188;SDS011;34313;50.780;6.084;2024-01-15T00:23:26;35.73;;;15.60;;
9188;SDS011;34313;50.780;6.084;2024-01-15T00:25:51;34.10;;;15.50;;
9188;SDS011;34313;50.780;6.084;2024-01-15T00:28:16;40.47;;;15.70;;
9188;SDS011;34313;50.780;6.084;2024-01-15T00:30:42;41.27;;;16.50;;
9188;SDS011;34313;50.780;6.084;2024-01-15T00:33:07;32.70;;;14.40;;
9188;SDS011;34313;50.780;6.084;2024-01-15T00:35:32;35.13;;;15.07;;
9188;SDS011;34313;50.780;6.084;2024-01-15T00:37:58;43.77;;;14.73;;
9188;SDS011;34313;50.780;6.084;2024-01-15T00:40:23;37.63;;;14.73;;
9188;SDS011;34313;50.780;6.084;2024-01-15T00:42:50;37.03;;;15.70;;
9188;SDS011;34313;50.780;6.084;2024-01-15T00:45:15;39.80;;;15.57;;
9188;SDS011;34313;50.780;6.084;2024-01-15T00:47:41;34.13;;;14.33;;
9188;SDS011;34313;50.780;6.084;2024-01-15T00:50:06;36.97;;;15.60;;
9188;SDS011;34313;50.780;6.084;2024-01-15T00:52:31;39.90;;;15.50;;
9188;SDS011;34313;50.780;6.084;2024-01-15T00:54:57;34.50;;;14.83;;
9188;SDS011;34313;50.780;6.084;2024-01-15T00:57:22;39.07;;;15.20;;
9188;SDS011;34313;50.780;6.084;2024-01-15T00:59:47;36.23;;;15.20;;
9188;SDS011;34313;50.780;6.084;2024-01-15T01:02:13;38.17;;;15.07;;
9188;SDS011;34313;50.780;6.084;2024-01-15T01:04:38;37.30;;;14.97;;
9188;SDS011;34313;50.780;6.084;2024-01-15T01:07:04;37.23;;;14.50;;
9188;SDS011;34313;50.780;6.084;2024-01-15T01:09:29;38.70;;;15.10;;
9188;SDS011;34313;50.780;6.084;2024-01-15T01:11:55;43.40;;;17.07;;
9188;SDS011;34313;50.780;6.084;2024-01-15T01:14:21;36.30;;;16.13;;
9188;SDS011;34313;50.780;6.084;2024-01-15T01:16:47;37.77;;;15.73;;
9188;SDS011;34313;50.780;6.084;2024-01-15T01:19:12;32.40;;;14.20;;
9188;SDS011;34313;50.780;6.084;2024-01-15T01:21:37;41.53;;;17.00;;
9188;SDS011;34313;50.780;6.084;2024-01-15T01:24:02;36.03;;;15.63;;
9188;SDS011;34313;50.780;6.084;2024-01-15T01:26:28;41.20;;;15.40;;
9188;SDS011;34313;50.780;6.084;2024-01-15T01:28:53;39.57;;;16.47;;
9188;SDS011;34313;50.780;6.084;2024-01-15T01:31:19;46.63;;;16.67;;
9188;SDS011;34313;50.780;6.084;2024-01-15T01:33:44;37.83;;;15.60;;
9188;SDS011;34313;50.780;6.084;2024-01-15T01:36:09;39.67;;;16.30;;
9188;SDS011;34313;50.780;6.084;2024-01-15T01:38:35;42.00;;;16.43;;
9188;SDS011;34313;50.780;6.084;2024-01-15T01:41:01;36.47;;;15.97;;
9188;SDS011;34313;50.780;6.084;2024-01-15T01:43:26;37.80;;;14.83;;
9188;SDS011;34313;50.780;6.084;2024-01-15T01:45:52;41.80;;;18.13;;
9188;SDS011;34313;50.780;6.084;2024-01-15T01:48:17;45.13;;;17.30;;
9188;SDS011;34313;50.780;6.084;2024-01-15T01:50:42;38.97;;;17.00;;
9188;SDS011;34313;50.780;6.084;2024-01-15T01:53:09;46.60;;;18.90;;
9188;SDS011;34313;50.780;6.084;2024-01-15T01:55:35;36.10;;;17.53;;
9188;SDS011;34313;50.780;6.084;2024-01-15T01:58:01;43.67;;;18.17;;
9188;SDS011;34313;50.780;6.084;2024-01-15T02:00:27;50.77;;;18.23;;
9188;SDS011;34313;50.780;6.084;2024-01-15T02:02:52;46.40;;;18.27;;
9188;SDS011;34313;50.780;6.084;2024-01-15T02:05:21;40.40;;;17.83;;
9188;SDS011;34313;50.780;6.084;2024-01-15T02:07:47;46.17;;;18.17;;
9188;SDS011;34313;50.780;6.084;2024-01-15T02:10:13;44.80;;;18.13;;
9188;SDS011;34313;50.780;6.084;2024-01-15T02:12:38;47.97;;;19.87;;
9188;SDS011;34313;50.780;6.084;2024-01-15T02:15:04;47.57;;;17.80;;
9188;SDS011;34313;50.780;6.084;2024-01-15T02:17:29;55.40;;;19.63;;
9188;SDS011;34313;50.780;6.084;2024-01-15T02:19:55;42.33;;;19.00;;
9188;SDS011;34313;50.780;6.084;2024-01-15T02:22:20;42.50;;;18.40;;
9188;SDS011;34313;50.780;6.084;2024-01-15T02:24:45;42.00;;;18.70;;
9188;SDS011;34313;50.780;6.084;2024-01-15T02:27:11;46.83;;;19.23;;
9188;SDS011;34313;50.780;6.084;2024-01-15T02:29:36;45.23;;;20.13;;
9188;SDS011;34313;50.780;6.084;2024-01-15T02:32:05;42.30;;;20.23;;
9188;SDS011;34313;50.780;6.084;2024-01-15T02:34:31;44.07;;;18.33;;
9188;SDS011;34313;50.780;6.084;2024-01-15T02:36:57;44.60;;;18.70;;
9188;SDS011;34313;50.780;6.084;2024-01-15T02:39:22;43.27;;;19.43;;
9188;SDS011;34313;50.780;6.084;2024-01-15T02:41:48;38.20;;;19.07;;
9188;SDS011;34313;50.780;6.084;2024-01-15T02:44:13;39.63;;;18.20;;
9188;SDS011;34313;50.780;6.084;2024-01-15T02:46:38;36.97;;;18.10;;
9188;SDS011;34313;50.780;6.084;2024-01-15T02:49:03;36.53;;;18.50;;
9188;SDS011;34313;50.780;6.084;2024-01-15T02:51:29;38.60;;;16.77;;
9188;SDS011;34313;50.780;6.084;2024-01-15T02:53:54;41.47;;;17.87;;
9188;SDS011;34313;50.780;6.084;2024-01-15T02:56:19;40.87;;;17.40;;
9188;SDS011;34313;50.780;6.084;2024-01-15T02:58:44;36.80;;;17.70;;
9188;SDS011;34313;50.780;6.084;2024-01-15T03:01:10;43.50;;;18.63;;
9188;SDS011;34313;50.780;6.084;2024-01-15T03:03:35;40.90;;;17.53;;
9188;SDS011;34313;50.780;6.084;2024-01-15T03:06:01;33.00;;;16.60;;
9188;SDS011;34313;50.780;6.084;2024-01-15T03:08:27;37.67;;;16.70;;
9188;SDS011;34313;50.780;6.084;2024-01-15T03:10:54;35.57;;;16.73;;
9188;SDS011;34313;50.780;6.084;2024-01-15T03:13:19;40.07;;;16.90;;
9188;SDS011;34313;50.780;6.084;2024-01-15T03:15:44;31.90;;;16.23;;
9188;SDS011;34313;50.780;6.084;2024-01-15T03:18:10;32.90;;;15.90;;
9188;SDS011;34313;50.780;6.084;2024-01-15T03:20:35;32.00;;;15.40;;
9188;SDS011;34313;50.780;6.084;2024-01-15T03:23:00;32.30;;;16.53;;
9188;SDS011;34313;50.780;6.084;2024-01-15T03:25:25;43.50;;;17.07;;
9188;SDS011;34313;50.780;6.084;2024-01-15T03:27:51;29.10;;;15.50;;
9188;SDS011;34313;50.780;6.084;2024-01-15T03:30:16;37.70;;;17.10;;
9188;SDS011;34313;50.780;6.084;2024-01-15T03:32:41;29.80;;;15.00;;
9188;SDS011;34313;50.780;6.084;2024-01-15T03:35:07;33.30;;;15.13;;
9188;SDS011;34313;50.780;6.084;2024-01-15T03:37:32;30.90;;;15.90;;
9188;SDS011;34313;50.780;6.084;2024-01-15T03:39:57;38.17;;;17.57;;
9188;SDS011;34313;50.780;6.084;2024-01-15T03:42:23;33.63;;;16.50;;
9188;SDS011;34313;50.780;6.084;2024-01-15T03:44:48;34.40;;;16.90;;
9188;SDS011;34313;50.780;6.084;2024-01-15T03:47:13;26.87;;;14.10;;
9188;SDS011;34313;50.780;6.084;2024-01-15T03:49:39;30.60;;;15.30;;
9188;SDS011;34313;50.780;6.084;2024-01-15T03:52:04;31.60;;;15.93;;
9188;SDS011;34313;50.780;6.084;2024-01-15T03:54:30;28.33;;;15.53;;
9188;SDS011;34313;50.780;6.084;2024-01-15T03:56:55;35.53;;;15.20;;
9188;SDS011;34313;50.780;6.084;2024-01-15T03:59:20;32.27;;;15.60;;
9188;SDS011;34313;50.780;6.084;2024-01-15T04:01:49;35.27;;;16.40;;
9188;SDS011;34313;50.780;6.084;2024-01-15T04:04:18;27.60;;;13.63;;
9188;SDS011;34313;50.780;6.084;2024-01-15T04:06:43;31.70;;;16.13;;
9188;SDS011;34313;50.780;6.084;2024-01-15T04:09:09;28.53;;;14.27;;
9188;SDS011;34313;50.780;6.084;2024-01-15T04:11:34;28.07;;;14.30;;
9188;SDS011;34313;50.780;6.084;2024-01-15T04:13:59;34.13;;;14.13;;
9188;SDS011;34313;50.780;6.084;2024-01-15T04:16:25;32.00;;;14.90;;
9188;SDS011;34313;50.780;6.084;2024-01-15T04:18:50;28.27;;;15.00;;
9188;SDS011;34313;50.780;6.084;2024-01-15T04:21:16;27.90;;;15.47;;
9188;SDS011;34313;50.780;6.084;2024-01-15T04:23:42;31.20;;;15.37;;
9188;SDS011;34313;50.780;6.084;2024-01-15T04:26:08;33.70;;;15.37;;
9188;SDS011;34313;50.780;6.084;2024-01-15T04:28:33;35.93;;;14.50;;
9188;SDS011;34313;50.780;6.084;2024-01-15T04:30:59;33.53;;;15.47;;
9188;SDS011;34313;50.780;6.084;2024-01-15T04:33:24;32.33;;;16.10;;
9188;SDS011;34313;50.780;6.084;2024-01-15T04:35:49;29.20;;;15.50;;
9188;SDS011;34313;50.780;6.084;2024-01-15T04:38:15;35.50;;;15.43;;
9188;SDS011;34313;50.780;6.084;2024-01-15T04:40:40;27.90;;;14.37;;
9188;SDS011;34313;50.780;6.084;2024-01-15T04:43:05;25.67;;;14.17;;
9188;SDS011;34313;50.780;6.084;2024-01-15T04:45:31;28.37;;;16.07;;
9188;SDS011;34313;50.780;6.084;2024-01-15T04:47:56;30.10;;;14.43;;
9188;SDS011;34313;50.780;6.084;2024-01-15T04:50:22;29.43;;;16.00;;
9188;SDS011;34313;50.780;6.084;2024-01-15T04:52:48;28.30;;;14.40;;
9188;SDS011;34313;50.780;6.084;2024-01-15T04:55:13;33.70;;;15.83;;
9188;SDS011;34313;50.780;6.084;2024-01-15T04:57:38;32.00;;;14.93;;
9188;SDS011;34313;50.780;6.084;2024-01-15T05:00:04;26.90;;;14.87;;
9188;SDS011;34313;50.780;6.084;2024-01-15T05:02:30;31.20;;;15.30;;
9188;SDS011;34313;50.780;6.084;2024-01-15T05:04:55;28.13;;;14.17;;
9188;SDS011;34313;50.780;6.084;2024-01-15T05:07:20;29.93;;;14.73;;
9188;SDS011;34313;50.780;6.084;2024-01-15T05:09:45;23.40;;;13.97;;
9188;SDS011;34313;50.780;6.084;2024-01-15T05:12:11;31.37;;;14.70;;
9188;SDS011;34313;50.780;6.084;2024-01-15T05:14:36;24.70;;;14.00;;
9188;SDS011;34313;50.780;6.084;2024-01-15T05:17:02;30.43;;;14.40;;
9188;SDS011;34313;50.780;6.084;2024-01-15T05:19:27;28.50;;;13.60;;
9188;SDS011;34313;50.780;6.084;2024-01-15T05:21:52;25.60;;;13.33;;
9188;SDS011;34313;50.780;6.084;2024-01-15T05:24:17;22.23;;;11.80;;
9188;SDS011;34313;50.780;6.084;2024-01-15T05:26:43;22.77;;;12.90;;
9188;SDS011;34313;50.780;6.084;2024-01-15T05:29:08;26.87;;;13.63;;
9188;SDS011;34313;50.780;6.084;2024-01-15T05:31:35;24.03;;;12.27;;
9188;SDS011;34313;50.780;6.084;2024-01-15T05:34:00;19.03;;;10.90;;
9188;SDS011;34313;50.780;6.084;2024-01-15T05:36:26;22.03;;;12.63;;
9188;SDS011;34313;50.780;6.084;2024-01-15T05:38:51;20.30;;;12.37;;
9188;SDS011;34313;50.780;6.084;2024-01-15T05:41:17;20.97;;;11.60;;
9188;SDS011;34313;50.780;6.084;2024-01-15T05:43:42;22.70;;;11.60;;
9188;SDS011;34313;50.780;6.084;2024-01-15T05:46:08;27.60;;;12.33;;
9188;SDS011;34313;50.780;6.084;2024-01-15T05:48:33;32.33;;;12.50;;
9188;SDS011;34313;50.780;6.084;2024-01-15T05:50:58;21.77;;;12.20;;
9188;SDS011;34313;50.780;6.084;2024-01-15T05:53:24;21.73;;;11.37;;
9188;SDS011;34313;50.780;6.084;2024-01-15T05:55:49;21.40;;;11.83;;
9188;SDS011;34313;50.780;6.084;2024-01-15T05:58:15;26.33;;;12.73;;
9188;SDS011;34313;50.780;6.084;2024-01-15T06:00:41;24.23;;;13.70;;
9188;SDS011;34313;50.780;6.084;2024-01-15T06:03:06;25.60;;;12.70;;
9188;SDS011;34313;50.780;6.084;2024-01-15T06:05:32;24.23;;;13.13;;
9188;SDS011;34313;50.780;6.084;2024-01-15T06:07:57;31.90;;;14.90;;
9188;SDS011;34313;50.780;6.084;2024-01-15T06:10:22;28.30;;;16.30;;
9188;SDS011;34313;50.780;6.084;2024-01-15T06:12:48;34.23;;;17.00;;
9188;SDS011;34313;50.780;6.084;2024-01-15T06:15:13;37.73;;;16.57;;
9188;SDS011;34313;50.780;6.084;2024-01-15T06:17:38;27.80;;;15.23;;
9188;SDS011;34313;50.780;6.084;2024-01-15T06:20:04;36.93;;;18.00;;
9188;SDS011;34313;50.780;6.084;2024-01-15T06:22:30;33.27;;;17.13;;
9188;SDS011;34313;50.780;6.084;2024-01-15T06:24:55;29.67;;;16.37;;
9188;SDS011;34313;50.780;6.084;2024-01-15T06:27:20;38.53;;;17.00;;
9188;SDS011;34313;50.780;6.084;2024-01-15T06:29:46;36.90;;;17.57;;
9188;SDS011;34313;50.780;6.084;2024-01-15T06:32:14;37.17;;;19.63;;
9188;SDS011;34313;50.780;6.084;2024-01-15T06:34:40;42.53;;;19.70;;
9188;SDS011;34313;50.780;6.084;2024-01-15T06:37:05;34.67;;;18.20;;
9188;SDS011;34313;50.780;6.084;2024-01-15T06:39:31;30.97;;;17.97;;
9188;SDS011;34313;50.780;6.084;2024-01-15T06:41:56;35.70;;;19.33;;
9188;SDS011;34313;50.780;6.084;2024-01-15T06:44:21;37.67;;;19.20;;
9188;SDS011;34313;50.780;6.084;2024-01-15T06:46:47;36.13;;;19.10;;
9188;SDS011;34313;50.780;6.084;2024-01-15T06:49:12;39.87;;;20.53;;
9188;SDS011;34313;50.780;6.084;2024-01-15T06:51:37;33.93;;;18.50;;
9188;SDS011;34313;50.780;6.084;2024-01-15T06:54:03;36.27;;;19.57;;
9188;SDS011;34313;50.780;6.084;2024-01-15T06:56:28;32.03;;;17.40;;
9188;SDS011;34313;50.780;6.084;2024-01-15T06:58:54;39.70;;;18.80;;
9188;SDS011;34313;50.780;6.084;2024-01-15T07:01:19;35.37;;;18.27;;
9188;SDS011;34313;50.780;6.084;2024-01-15T07:03:45;34.53;;;18.23;;
9188;SDS011;34313;50.780;6.084;2024-01-15T07:06:10;39.03;;;18.90;;
9188;SDS011;34313;50.780;6.084;2024-01-15T07:08:36;38.53;;;18.70;;
9188;SDS011;34313;50.780;6.084;2024-01-15T07:11:04;32.37;;;18.00;;
9188;SDS011;34313;50.780;6.084;2024-01-15T07:13:30;36.33;;;18.70;;
9188;SDS011;34313;50.780;6.084;2024-01-15T07:15:56;35.13;;;18.97;;
9188;SDS011;34313;50.780;6.084;2024-01-15T07:18:24;33.40;;;18.67;;
9188;SDS011;34313;50.780;6.084;2024-01-15T07:20:50;29.27;;;16.70;;
9188;SDS011;34313;50.780;6.084;2024-01-15T07:23:15;31.70;;;16.40;;
9188;SDS011;34313;50.780;6.084;2024-01-15T07:25:42;33.13;;;16.43;;
9188;SDS011;34313;50.780;6.084;2024-01-15T07:28:08;29.30;;;14.77;;
9188;SDS011;34313;50.780;6.084;2024-01-15T07:30:33;28.47;;;15.63;;
9188;SDS011;34313;50.780;6.084;2024-01-15T07:32:58;28.73;;;15.60;;
9188;SDS011;34313;50.780;6.084;2024-01-15T07:35:24;26.13;;;14.93;;
9188;SDS011;34313;50.780;6.084;2024-01-15T07:37:49;27.47;;;14.90;;
9188;SDS011;34313;50.780;6.084;2024-01-15T07:40:14;29.03;;;14.23;;
9188;SDS011;34313;50.780;6.084;2024-01-15T07:42:40;23.70;;;12.27;;
9188;SDS011;34313;50.780;6.084;2024-01-15T07:45:07;28.03;;;15.00;;
9188;SDS011;34313;50.780;6.084;2024-01-15T07:47:33;31.20;;;12.47;;
9188;SDS011;34313;50.780;6.084;2024-01-15T07:49:58;27.17;;;13.73;;
9188;SDS011;34313;50.780;6.084;2024-01-15T07:52:23;20.37;;;11.67;;
9188;SDS011;34313;50.780;6.084;2024-01-15T07:54:49;22.83;;;11.37;;
9188;SDS011;34313;50.780;6.084;2024-01-15T07:57:14;24.10;;;12.83;;
9188;SDS011;34313;50.780;6.084;2024-01-15T07:59:39;24.77;;;11.67;;
9188;SDS011;34313;50.780;6.084;2024-01-15T08:02:05;17.70;;;10.10;;
9188;SDS011;34313;50.780;6.084;2024-01-15T08:04:30;21.03;;;11.27;;
9188;SDS011;34313;50.780;6.084;2024-01-15T08:06:56;18.60;;;11.17;;
9188;SDS011;34313;50.780;6.084;2024-01-15T08:09:22;30.13;;;11.20;;
9188;SDS011;34313;50.780;6.084;2024-01-15T08:11:47;22.10;;;9.57;;
9188;SDS011;34313;50.780;6.084;2024-01-15T08:14:14;15.97;;;9.40;;
9188;SDS011;34313;50.780;6.084;2024-01-15T08:16:39;16.97;;;9.33;;
9188;SDS011;34313;50.780;6.084;2024-01-15T08:19:05;18.30;;;8.70;;
9188;SDS011;34313;50.780;6.084;2024-01-15T08:21:31;19.53;;;8.90;;
9188;SDS011;34313;50.780;6.084;2024-01-15T08:24:00;13.97;;;8.57;;
9188;SDS011;34313;50.780;6.084;2024-01-15T08:26:27;14.73;;;8.30;;
9188;SDS011;34313;50.780;6.084;2024-01-15T08:28:53;12.73;;;7.87;;
9188;SDS011;34313;50.780;6.084;2024-01-15T08:31:18;16.37;;;8.33;;
9188;SDS011;34313;50.780;6.084;2024-01-15T08:33:43;16.17;;;7.77;;
9188;SDS011;34313;50.780;6.084;2024-01-15T08:36:11;16.33;;;8.80;;
9188;SDS011;34313;50.780;6.084;2024-01-15T08:38:37;16.67;;;8.33;;
9188;SDS011;34313;50.780;6.084;2024-01-15T08:41:02;10.73;;;6.13;;
9188;SDS011;34313;50.780;6.084;2024-01-15T08:43:28;12.47;;;7.50;;
9188;SDS011;34313;50.780;6.084;2024-01-15T08:45:53;18.43;;;7.97;;
9188;SDS011;34313;50.780;6.084;2024-01-15T08:48:18;18.40;;;8.23;;
9188;SDS011;34313;50.780;6.084;2024-01-15T08:50:44;13.77;;;7.40;;
9188;SDS011;34313;50.780;6.084;2024-01-15T08:53:12;12.63;;;7.90;;
9188;SDS011;34313;50.780;6.084;2024-01-15T08:55:38;13.43;;;7.83;;
9188;SDS011;34313;50.780;6.084;2024-01-15T08:58:04;14.60;;;7.23;;
9188;SDS011;34313;50.780;6.084;2024-01-15T09:00:29;13.13;;;7.27;;
9188;SDS011;34313;50.780;6.084;2024-01-15T09:02:55;12.73;;;8.00;;
9188;SDS011;34313;50.780;6.084;2024-01-15T09:05:21;17.67;;;7.43;;
9188;SDS011;34313;50.780;6.084;2024-01-15T09:07:47;12.23;;;7.07;;
9188;SDS011;34313;50.780;6.084;2024-01-15T09:10:13;14.53;;;6.60;;
9188;SDS011;34313;50.780;6.084;2024-01-15T09:12:38;10.27;;;6.47;;
9188;SDS011;34313;50.780;6.084;2024-01-15T09:15:04;13.40;;;7.63;;
9188;SDS011;34313;50.780;6.084;2024-01-15T09:17:29;12.83;;;7.17;;
9188;SDS011;34313;50.780;6.084;2024-01-15T09:19:56;13.20;;;6.70;;
9188;SDS011;34313;50.780;6.084;2024-01-15T09:22:21;11.77;;;7.80;;
9188;SDS011;34313;50.780;6.084;2024-01-15T09:24:46;10.03;;;7.10;;
9188;SDS011;34313;50.780;6.084;2024-01-15T09:27:12;11.70;;;6.60;;
9188;SDS011;34313;50.780;6.084;2024-01-15T09:29:38;14.70;;;6.93;;
9188;SDS011;34313;50.780;6.084;2024-01-15T09:32:05;10.83;;;6.77;;
9188;SDS011;34313;50.780;6.084;2024-01-15T09:34:30;12.90;;;7.60;;
9188;SDS011;34313;50.780;6.084;2024-01-15T09:36:56;12.73;;;6.87;;
9188;SDS011;34313;50.780;6.084;2024-01-15T09:39:21;16.67;;;7.17;;
9188;SDS011;34313;50.780;6.084;2024-01-15T09:41:48;9.37;;;6.53;;
9188;SDS011;34313;50.780;6.084;2024-01-15T09:44:14;17.53;;;8.70;;
9188;SDS011;34313;50.780;6.084;2024-01-15T09:46:41;10.73;;;7.23;;
9188;SDS011;34313;50.780;6.084;2024-01-15T09:49:08;16.60;;;6.70;;
9188;SDS011;34313;50.780;6.084;2024-01-15T09:51:34;12.07;;;7.13;;
9188;SDS011;34313;50.780;6.084;2024-01-15T09:54:01;12.23;;;7.73;;
9188;SDS011;34313;50.780;6.084;2024-01-15T09:56:27;10.60;;;7.53;;
9188;SDS011;34313;50.780;6.084;2024-01-15T09:58:52;13.40;;;7.10;;
9188;SDS011;34313;50.780;6.084;2024-01-15T10:01:19;11.47;;;7.43;;
9188;SDS011;34313;50.780;6.084;2024-01-15T10:03:45;12.43;;;7.17;;
9188;SDS011;34313;50.780;6.084;2024-01-15T10:06:11;13.90;;;7.20;;
9188;SDS011;34313;50.780;6.084;2024-01-15T10:08:42;12.50;;;7.00;;
9188;SDS011;34313;50.780;6.084;2024-01-15T10:11:12;12.10;;;7.00;;
9188;SDS011;34313;50.780;6.084;2024-01-15T10:13:37;10.70;;;7.43;;
9188;SDS011;34313;50.780;6.084;2024-01-15T10:16:04;13.97;;;7.43;;
9188;SDS011;34313;50.780;6.084;2024-01-15T10:18:29;11.17;;;8.07;;
9188;SDS011;34313;50.780;6.084;2024-01-15T10:20:55;18.87;;;8.10;;
9188;SDS011;34313;50.780;6.084;2024-01-15T10:23:22;12.03;;;7.63;;
9188;SDS011;34313;50.780;6.084;2024-01-15T10:25:48;10.17;;;7.27;;
9188;SDS011;34313;50.780;6.084;2024-01-15T10:28:13;10.67;;;7.10;;
9188;SDS011;34313;50.780;6.084;2024-01-15T10:30:39;15.17;;;7.47;;
9188;SDS011;34313;50.780;6.084;2024-01-15T10:33:05;9.43;;;6.50;;
9188;SDS011;34313;50.780;6.084;2024-01-15T10:35:31;13.30;;;6.20;;
9188;SDS011;34313;50.780;6.084;2024-01-15T10:38:00;15.13;;;5.90;;
9188;SDS011;34313;50.780;6.084;2024-01-15T10:40:26;9.93;;;6.47;;
9188;SDS011;34313;50.780;6.084;2024-01-15T10:42:51;12.17;;;5.80;;
9188;SDS011;34313;50.780;6.084;2024-01-15T10:45:17;11.67;;;5.93;;
9188;SDS011;34313;50.780;6.084;2024-01-15T10:47:43;14.27;;;6.50;;
9188;SDS011;34313;50.780;6.084;2024-01-15T10:50:09;13.97;;;5.90;;
9188;SDS011;34313;50.780;6.084;2024-01-15T10:52:35;12.07;;;5.43;;
9188;SDS011;34313;50.780;6.084;2024-01-15T10:55:02;10.50;;;5.30;;
9188;SDS011;34313;50.780;6.084;2024-01-15T10:57:28;8.80;;;4.90;;
9188;SDS011;34313;50.780;6.084;2024-01-15T10:59:54;19.47;;;4.43;;
9188;SDS011;34313;50.780;6.084;2024-01-15T11:02:19;9.30;;;4.73;;
9188;SDS011;34313;50.780;6.084;2024-01-15T11:04:45;12.63;;;5.20;;
9188;SDS011;34313;50.780;6.084;2024-01-15T11:07:11;7.43;;;4.60;;
9188;SDS011;34313;50.780;6.084;2024-01-15T11:09:38;9.53;;;4.73;;
9188;SDS011;34313;50.780;6.084;2024-01-15T11:12:07;10.17;;;3.93;;
9188;SDS011;34313;50.780;6.084;2024-01-15T11:14:38;20.53;;;4.33;;
9188;SDS011;34313;50.780;6.084;2024-01-15T11:17:10;10.00;;;3.77;;
9188;SDS011;34313;50.780;6.084;2024-01-15T11:19:38;6.17;;;4.47;;
9188;SDS011;34313;50.780;6.084;2024-01-15T11:22:08;10.17;;;4.57;;
9188;SDS011;34313;50.780;6.084;2024-01-15T11:27:03;11.70;;;3.93;;
9188;SDS011;34313;50.780;6.084;2024-01-15T11:29:33;7.77;;;3.33;;
9188;SDS011;34313;50.780;6.084;2024-01-15T11:32:00;7.23;;;3.70;;
9188;SDS011;34313;50.780;6.084;2024-01-15T11:34:49;5.37;;;3.20;;
9188;SDS011;34313;50.780;6.084;2024-01-15T11:37:15;10.47;;;3.30;;
9188;SDS011;34313;50.780;6.084;2024-01-15T11:39:41;8.10;;;3.77;;
9188;SDS011;34313;50.780;6.084;2024-01-15T11:42:08;13.63;;;3.93;;
9188;SDS011;34313;50.780;6.084;2024-01-15T11:44:34;9.87;;;3.50;;
9188;SDS011;34313;50.780;6.084;2024-01-15T11:47:03;10.77;;;2.70;;
9188;SDS011;34313;50.780;6.084;2024-01-15T11:49:54;7.83;;;3.00;;
9188;SDS011;34313;50.780;6.084;2024-01-15T11:52:37;7.90;;;3.87;;
9188;SDS011;34313;50.780;6.084;2024-01-15T11:55:38;7.60;;;3.17;;
9188;SDS011;34313;50.780;6.084;2024-01-15T11:58:01;9.30;;;3.10;;
9188;SDS011;34313;50.780;6.084;2024-01-15T12:00:32;6.67;;;3.40;;
9188;SDS011;34313;50.780;6.084;2024-01-15T12:02:58;9.27;;;3.20;;
9188;SDS011;34313;50.780;6.084;2024-01-15T12:05:23;5.63;;;2.80;;
9188;SDS011;34313;50.780;6.084;2024-01-15T12:07:49;5.50;;;3.27;;
9188;SDS011;34313;50.780;6.084;2024-01-15T12:10:18;7.20;;;2.77;;
9188;SDS011;34313;50.780;6.084;2024-01-15T12:15:18;9.90;;;2.97;;
9188;SDS011;34313;50.780;6.084;2024-01-15T12:17:44;7.60;;;2.80;;
9188;SDS011;34313;50.780;6.084;2024-01-15T12:20:10;11.40;;;2.77;;
9188;SDS011;34313;50.780;6.084;2024-01-15T12:22:37;7.13;;;2.70;;
9188;SDS011;34313;50.780;6.084;2024-01-15T12:25:03;8.60;;;2.73;;
9188;SDS011;34313;50.780;6.084;2024-01-15T12:27:28;7.63;;;3.17;;
9188;SDS011;34313;50.780;6.084;2024-01-15T12:29:54;6.07;;;2.60;;
9188;SDS011;34313;50.780;6.084;2024-01-15T12:32:19;10.60;;;2.63;;
9188;SDS011;34313;50.780;6.084;2024-01-15T12:34:46;4.20;;;2.43;;
9188;SDS011;34313;50.780;6.084;2024-01-15T12:37:11;20.17;;;4.10;;
9188;SDS011;34313;50.780;6.084;2024-01-15T12:39:37;10.97;;;2.57;;
9188;SDS011;34313;50.780;6.084;2024-01-15T12:42:02;7.07;;;2.50;;
9188;SDS011;34313;50.780;6.084;2024-01-15T12:44:29;8.27;;;2.80;;
9188;SDS011;34313;50.780;6.084;2024-01-15T12:46:54;7.27;;;3.07;;
9188;SDS011;34313;50.780;6.084;2024-01-15T12:49:20;11.43;;;2.57;;
9188;SDS011;34313;50.780;6.084;2024-01-15T12:51:53;7.80;;;2.73;;
9188;SDS011;34313;50.780;6.084;2024-01-15T12:54:18;6.27;;;2.73;;
9188;SDS011;34313;50.780;6.084;2024-01-15T12:56:44;7.03;;;3.10;;
9188;SDS011;34313;50.780;6.084;2024-01-15T12:59:09;5.20;;;2.43;;
9188;SDS011;34313;50.780;6.084;2024-01-15T13:01:34;8.50;;;2.80;;
9188;SDS011;34313;50.780;6.084;2024-01-15T13:04:01;4.73;;;2.30;;
9188;SDS011;34313;50.780;6.084;2024-01-15T13:06:26;5.17;;;2.73;;
9188;SDS011;34313;50.780;6.084;2024-01-15T13:08:51;5.83;;;2.50;;
9188;SDS011;34313;50.780;6.084;2024-01-15T13:11:17;12.13;;;2.67;;
9188;SDS011;34313;50.780;6.084;2024-01-15T13:13:42;4.40;;;2.33;;
9188;SDS011;34313;50.780;6.084;2024-01-15T13:16:08;5.63;;;2.53;;
9188;SDS011;34313;50.780;6.084;2024-01-15T13:18:34;2.33;;;2.13;;
9188;SDS011;34313;50.780;6.084;2024-01-15T13:20:59;5.50;;;2.50;;
9188;SDS011;34313;50.780;6.084;2024-01-15T13:23:25;4.17;;;2.30;;
9188;SDS011;34313;50.780;6.084;2024-01-15T13:25:50;4.63;;;2.73;;
9188;SDS011;34313;50.780;6.084;2024-01-15T13:28:17;4.83;;;2.90;;
9188;SDS011;34313;50.780;6.084;2024-01-15T13:30:42;2.93;;;2.30;;
9188;SDS011;34313;50.780;6.084;2024-01-15T13:33:08;3.33;;;2.23;;
9188;SDS011;34313;50.780;6.084;2024-01-15T13:35:33;3.60;;;2.73;;
9188;SDS011;34313;50.780;6.084;2024-01-15T13:38:01;1.80;;;1.40;;
9188;SDS011;34313;50.780;6.084;2024-01-15T13:40:26;3.13;;;2.03;;
9188;SDS011;34313;50.780;6.084;2024-01-15T13:42:52;5.77;;;1.80;;
9188;SDS011;34313;50.780;6.084;2024-01-15T13:45:17;4.13;;;2.23;;
9188;SDS011;34313;50.780;6.084;2024-01-15T13:47:43;3.10;;;2.10;;
9188;SDS011;34313;50.780;6.084;2024-01-15T13:50:08;11.87;;;2.57;;
9188;SDS011;34313;50.780;6.084;2024-01-15T13:52:35;4.43;;;2.47;;
9188;SDS011;34313;50.780;6.084;2024-01-15T13:55:00;2.23;;;2.03;;
9188;SDS011;34313;50.780;6.084;2024-01-15T13:57:26;3.00;;;2.47;;
9188;SDS011;34313;50.780;6.084;2024-01-15T13:59:52;7.90;;;2.23;;
9188;SDS011;34313;50.780;6.084;2024-01-15T14:02:17;3.33;;;2.03;;
9188;SDS011;34313;50.780;6.084;2024-01-15T14:04:42;2.67;;;2.00;;
9188;SDS011;34313;50.780;6.084;2024-01-15T14:07:08;7.83;;;2.37;;
9188;SDS011;34313;50.780;6.084;2024-01-15T14:09:33;2.07;;;1.83;;
9188;SDS011;34313;50.780;6.084;2024-01-15T14:11:59;5.87;;;2.50;;
9188;SDS011;34313;50.780;6.084;2024-01-15T14:14:24;2.97;;;2.43;;
9188;SDS011;34313;50.780;6.084;2024-01-15T14:16:50;3.83;;;2.23;;
9188;SDS011;34313;50.780;6.084;2024-01-15T14:19:15;4.80;;;2.10;;
9188;SDS011;34313;50.780;6.084;2024-01-15T14:21:41;2.67;;;1.97;;
9188;SDS011;34313;50.780;6.084;2024-01-15T14:24:06;5.00;;;2.47;;
9188;SDS011;34313;50.780;6.084;2024-01-15T14:26:31;6.30;;;3.00;;
9188;SDS011;34313;50.780;6.084;2024-01-15T14:28:57;4.63;;;2.40;;
9188;SDS011;34313;50.780;6.084;2024-01-15T14:31:23;3.03;;;2.00;;
9188;SDS011;34313;50.780;6.084;2024-01-15T14:33:51;4.73;;;1.90;;
9188;SDS011;34313;50.780;6.084;2024-01-15T14:36:16;2.40;;;2.20;;
9188;SDS011;34313;50.780;6.084;2024-01-15T14:38:42;4.30;;;2.33;;
9188;SDS011;34313;50.780;6.084;2024-01-15T14:41:07;3.30;;;1.83;;